UAL1326 KORD-KRIC
Flight info
| Callsign | UAL1326 |
|---|---|
| Flight time | 1h 26m |
| Altitude | 39000 |
| Route | EARND ELANR EMMLY ETAME EMEGE FLM J24 MOL SPIDR5 |
| Aircraft | B738/M-SDE2E3FGHIRWXY/LB1 |
Departure
| Time | 2026-05-07 15:02 |
|---|---|
| Airport | Chicago O'Hare International Airport (KORD) |
Arrival
| Time | 2026-05-07 16:28 |
|---|---|
| Airport | Richmond International Airport (KRIC) |
| Time | Latitude | Longitude | Altitude | Speed | Heading |
|---|---|---|---|---|---|
| 2026-05-07 14:34 | 41.97771 | -87.90991 | 670 ft | 0 kts | 280° |
| 2026-05-07 14:51 | 41.97767 | -87.90965 | 667 ft | 4 kts | 295° |
| 2026-05-07 14:52 | 41.97751 | -87.90938 | 670 ft | 4 kts | 330° |
| 2026-05-07 14:52 | 41.97726 | -87.90928 | 668 ft | 4 kts | 0° |
| 2026-05-07 14:52 | 41.97709 | -87.90930 | 670 ft | 0 kts | 9° |
| 2026-05-07 14:55 | 41.97718 | -87.90928 | 668 ft | 4 kts | 9° |
| 2026-05-07 14:55 | 41.97783 | -87.90915 | 670 ft | 15 kts | 8° |
| 2026-05-07 14:55 | 41.97914 | -87.90887 | 670 ft | 23 kts | 9° |
| 2026-05-07 14:55 | 41.98074 | -87.90851 | 669 ft | 23 kts | 6° |
| 2026-05-07 14:56 | 41.98222 | -87.90865 | 667 ft | 16 kts | 5° |
| 2026-05-07 14:56 | 41.98281 | -87.90762 | 668 ft | 15 kts | 83° |
| 2026-05-07 14:56 | 41.98290 | -87.90614 | 667 ft | 17 kts | 88° |
| 2026-05-07 14:56 | 41.98290 | -87.90444 | 667 ft | 19 kts | 90° |
| 2026-05-07 14:57 | 41.98289 | -87.90254 | 668 ft | 21 kts | 90° |
| 2026-05-07 14:57 | 41.98289 | -87.90044 | 668 ft | 23 kts | 90° |
| 2026-05-07 14:57 | 41.98289 | -87.89818 | 669 ft | 25 kts | 89° |
| 2026-05-07 14:57 | 41.98290 | -87.89584 | 668 ft | 19 kts | 89° |
| 2026-05-07 14:58 | 41.98290 | -87.89408 | 668 ft | 19 kts | 90° |
| 2026-05-07 14:58 | 41.98290 | -87.89240 | 668 ft | 18 kts | 90° |
| 2026-05-07 14:58 | 41.98290 | -87.89062 | 667 ft | 19 kts | 90° |
| 2026-05-07 14:58 | 41.98294 | -87.88963 | 666 ft | 0 kts | 71° |
| 2026-05-07 15:01 | 41.98298 | -87.88951 | 666 ft | 4 kts | 61° |
| 2026-05-07 15:01 | 41.98366 | -87.88937 | 662 ft | 17 kts | 325° |
| 2026-05-07 15:01 | 41.98391 | -87.89147 | 664 ft | 43 kts | 270° |
| 2026-05-07 15:02 | 41.98390 | -87.89960 | 667 ft | 128 kts | 270° |
| 2026-05-07 15:02 | 41.98396 | -87.91389 | 1020 ft | 168 kts | 269° |
| 2026-05-07 15:02 | 41.98409 | -87.92966 | 2138 ft | 176 kts | 269° |
| 2026-05-07 15:02 | 41.98408 | -87.94733 | 2725 ft | 199 kts | 269° |
| 2026-05-07 15:03 | 41.98371 | -87.96697 | 3194 ft | 217 kts | 268° |
| 2026-05-07 15:03 | 41.98317 | -87.98757 | 4049 ft | 225 kts | 267° |
| 2026-05-07 15:03 | 41.98053 | -88.00904 | 4800 ft | 242 kts | 246° |
| 2026-05-07 15:03 | 41.96899 | -88.02614 | 5684 ft | 258 kts | 213° |
| 2026-05-07 15:04 | 41.95126 | -88.03162 | 6709 ft | 274 kts | 180° |
| 2026-05-07 15:04 | 41.93285 | -88.02276 | 7507 ft | 295 kts | 148° |
| 2026-05-07 15:04 | 41.91780 | -88.00377 | 8382 ft | 303 kts | 137° |
| 2026-05-07 15:04 | 41.90312 | -87.98322 | 9374 ft | 307 kts | 137° |
| 2026-05-07 15:05 | 41.88815 | -87.96234 | 10213 ft | 314 kts | 137° |
| 2026-05-07 15:05 | 41.87246 | -87.94057 | 10582 ft | 337 kts | 137° |
| 2026-05-07 15:05 | 41.85573 | -87.91687 | 10869 ft | 362 kts | 132° |
| 2026-05-07 15:05 | 41.84023 | -87.88957 | 11529 ft | 372 kts | 128° |
| 2026-05-07 15:06 | 41.82469 | -87.86154 | 12333 ft | 377 kts | 131° |
| 2026-05-07 15:06 | 41.80699 | -87.83555 | 13144 ft | 379 kts | 140° |
| 2026-05-07 15:06 | 41.78668 | -87.81282 | 13938 ft | 381 kts | 148° |
| 2026-05-07 15:06 | 41.76454 | -87.79316 | 14690 ft | 382 kts | 154° |
| 2026-05-07 15:07 | 41.74176 | -87.77596 | 15511 ft | 381 kts | 157° |
| 2026-05-07 15:07 | 41.71815 | -87.75978 | 16327 ft | 382 kts | 159° |
| 2026-05-07 15:07 | 41.69422 | -87.74417 | 17104 ft | 384 kts | 160° |
| 2026-05-07 15:07 | 41.67003 | -87.72870 | 17857 ft | 387 kts | 161° |
| 2026-05-07 15:08 | 41.64561 | -87.71315 | 18569 ft | 390 kts | 161° |
| 2026-05-07 15:08 | 41.62095 | -87.69744 | 19171 ft | 395 kts | 161° |
| 2026-05-07 15:08 | 41.59601 | -87.68150 | 19756 ft | 400 kts | 162° |
| 2026-05-07 15:08 | 41.57079 | -87.66536 | 20337 ft | 404 kts | 162° |
| 2026-05-07 15:09 | 41.54531 | -87.64904 | 20918 ft | 409 kts | 162° |
| 2026-05-07 15:09 | 41.51993 | -87.63276 | 21472 ft | 413 kts | 163° |
| 2026-05-07 15:09 | 41.49386 | -87.61606 | 22029 ft | 417 kts | 163° |
| 2026-05-07 15:09 | 41.46755 | -87.59924 | 22580 ft | 422 kts | 164° |
| 2026-05-07 15:10 | 41.44092 | -87.58251 | 23110 ft | 423 kts | 167° |
| 2026-05-07 15:10 | 41.41329 | -87.56995 | 23621 ft | 416 kts | 177° |
| 2026-05-07 15:10 | 41.38510 | -87.56365 | 24070 ft | 409 kts | 184° |
| 2026-05-07 15:10 | 41.35726 | -87.55920 | 24543 ft | 410 kts | 185° |
| 2026-05-07 15:11 | 41.32837 | -87.55468 | 25022 ft | 413 kts | 185° |
| 2026-05-07 15:11 | 41.30012 | -87.55008 | 25454 ft | 416 kts | 184° |
| 2026-05-07 15:11 | 41.27129 | -87.54518 | 25891 ft | 420 kts | 184° |
| 2026-05-07 15:11 | 41.24223 | -87.54011 | 26332 ft | 422 kts | 184° |
| 2026-05-07 15:12 | 41.21301 | -87.53499 | 26762 ft | 425 kts | 184° |
| 2026-05-07 15:12 | 41.18357 | -87.52903 | 27163 ft | 431 kts | 182° |
| 2026-05-07 15:12 | 41.15391 | -87.52153 | 27577 ft | 436 kts | 180° |
| 2026-05-07 15:12 | 41.12408 | -87.51332 | 27976 ft | 439 kts | 180° |
| 2026-05-07 15:13 | 41.09408 | -87.50488 | 28377 ft | 442 kts | 180° |
| 2026-05-07 15:13 | 41.06433 | -87.49656 | 28751 ft | 444 kts | 180° |
| 2026-05-07 15:13 | 41.03402 | -87.48821 | 29120 ft | 446 kts | 180° |
| 2026-05-07 15:13 | 41.00354 | -87.47992 | 29478 ft | 448 kts | 181° |
| 2026-05-07 15:14 | 40.97288 | -87.47167 | 29843 ft | 450 kts | 181° |
| 2026-05-07 15:14 | 40.94209 | -87.46343 | 30187 ft | 452 kts | 181° |
| 2026-05-07 15:14 | 40.91118 | -87.45519 | 30469 ft | 454 kts | 181° |
| 2026-05-07 15:14 | 40.88010 | -87.44691 | 30751 ft | 456 kts | 181° |
| 2026-05-07 15:15 | 40.84892 | -87.43861 | 31011 ft | 458 kts | 180° |
| 2026-05-07 15:15 | 40.81756 | -87.43028 | 31263 ft | 461 kts | 180° |
| 2026-05-07 15:15 | 40.78654 | -87.42203 | 31548 ft | 462 kts | 180° |
| 2026-05-07 15:15 | 40.75507 | -87.41364 | 31930 ft | 460 kts | 180° |
| 2026-05-07 15:16 | 40.72378 | -87.40530 | 32344 ft | 458 kts | 180° |
| 2026-05-07 15:16 | 40.69259 | -87.39700 | 32708 ft | 457 kts | 180° |
| 2026-05-07 15:16 | 40.66143 | -87.38875 | 33034 ft | 457 kts | 181° |
| 2026-05-07 15:16 | 40.63026 | -87.38052 | 33383 ft | 456 kts | 181° |
| 2026-05-07 15:17 | 40.59917 | -87.37230 | 33752 ft | 455 kts | 181° |
| 2026-05-07 15:17 | 40.56816 | -87.36412 | 34086 ft | 454 kts | 181° |
| 2026-05-07 15:17 | 40.53760 | -87.35607 | 34332 ft | 455 kts | 181° |
| 2026-05-07 15:17 | 40.50656 | -87.34790 | 34562 ft | 455 kts | 181° |
| 2026-05-07 15:18 | 40.47549 | -87.33902 | 34787 ft | 463 kts | 176° |
| 2026-05-07 15:18 | 40.44473 | -87.32439 | 35008 ft | 478 kts | 167° |
| 2026-05-07 15:18 | 40.41516 | -87.30306 | 35238 ft | 494 kts | 156° |
| 2026-05-07 15:18 | 40.38685 | -87.27710 | 35479 ft | 498 kts | 154° |
| 2026-05-07 15:19 | 40.35888 | -87.25021 | 35688 ft | 499 kts | 154° |
| 2026-05-07 15:19 | 40.33090 | -87.22307 | 35890 ft | 500 kts | 154° |
| 2026-05-07 15:19 | 40.30323 | -87.19645 | 36116 ft | 500 kts | 154° |
| 2026-05-07 15:19 | 40.27511 | -87.16976 | 36338 ft | 500 kts | 155° |
| 2026-05-07 15:20 | 40.24685 | -87.14326 | 36546 ft | 500 kts | 155° |
| 2026-05-07 15:20 | 40.21849 | -87.11687 | 36740 ft | 500 kts | 155° |
| 2026-05-07 15:20 | 40.19009 | -87.09055 | 36944 ft | 501 kts | 155° |
| 2026-05-07 15:20 | 40.16165 | -87.06423 | 37162 ft | 501 kts | 155° |
| 2026-05-07 15:21 | 40.13321 | -87.03790 | 37361 ft | 501 kts | 155° |
| 2026-05-07 15:21 | 40.10474 | -87.01156 | 37553 ft | 502 kts | 155° |
| 2026-05-07 15:21 | 40.07663 | -86.98556 | 37742 ft | 502 kts | 155° |
| 2026-05-07 15:21 | 40.04811 | -86.95919 | 37948 ft | 502 kts | 155° |
| 2026-05-07 15:22 | 40.01959 | -86.93284 | 38138 ft | 502 kts | 155° |
| 2026-05-07 15:22 | 39.99105 | -86.90651 | 38335 ft | 503 kts | 155° |
| 2026-05-07 15:22 | 39.96234 | -86.88071 | 38523 ft | 499 kts | 158° |
| 2026-05-07 15:22 | 39.93311 | -86.85646 | 38703 ft | 497 kts | 159° |
| 2026-05-07 15:23 | 39.90366 | -86.83292 | 38860 ft | 496 kts | 160° |
| 2026-05-07 15:23 | 39.87423 | -86.80945 | 39025 ft | 496 kts | 159° |
| 2026-05-07 15:23 | 39.81577 | -86.76209 | 39080 ft | 500 kts | 159° |
| 2026-05-07 15:24 | 39.75725 | -86.71403 | 39083 ft | 497 kts | 157° |
| 2026-05-07 15:24 | 39.72953 | -86.68626 | 39090 ft | 509 kts | 147° |
| 2026-05-07 15:24 | 39.70470 | -86.65293 | 39095 ft | 519 kts | 138° |
| 2026-05-07 15:25 | 39.66508 | -86.57316 | 39105 ft | 530 kts | 126° |
| 2026-05-07 15:25 | 39.63004 | -86.48981 | 39084 ft | 529 kts | 126° |
| 2026-05-07 15:26 | 39.59470 | -86.40633 | 39085 ft | 527 kts | 127° |
| 2026-05-07 15:26 | 39.55882 | -86.32360 | 39085 ft | 526 kts | 127° |
| 2026-05-07 15:27 | 39.52262 | -86.24115 | 39086 ft | 526 kts | 128° |
| 2026-05-07 15:27 | 39.48633 | -86.15876 | 39090 ft | 527 kts | 128° |
| 2026-05-07 15:28 | 39.45014 | -86.07671 | 39090 ft | 529 kts | 128° |
| 2026-05-07 15:28 | 39.41358 | -85.99395 | 39095 ft | 531 kts | 128° |
| 2026-05-07 15:29 | 39.37682 | -85.91094 | 39099 ft | 533 kts | 128° |
| 2026-05-07 15:29 | 39.33986 | -85.82772 | 39092 ft | 535 kts | 128° |
| 2026-05-07 15:30 | 39.30297 | -85.74485 | 39093 ft | 536 kts | 129° |
| 2026-05-07 15:30 | 39.26567 | -85.66130 | 39093 ft | 538 kts | 129° |
| 2026-05-07 15:31 | 39.22823 | -85.57766 | 39082 ft | 539 kts | 129° |
| 2026-05-07 15:31 | 39.19073 | -85.49407 | 39075 ft | 539 kts | 129° |
| 2026-05-07 15:32 | 39.15344 | -85.41120 | 39068 ft | 538 kts | 129° |
| 2026-05-07 15:32 | 39.11588 | -85.32795 | 39065 ft | 537 kts | 129° |
| 2026-05-07 15:33 | 39.07834 | -85.24496 | 39061 ft | 536 kts | 129° |
| 2026-05-07 15:33 | 39.04084 | -85.16226 | 39061 ft | 535 kts | 130° |
| 2026-05-07 15:34 | 39.00358 | -85.08035 | 39054 ft | 534 kts | 130° |
| 2026-05-07 15:34 | 38.96610 | -84.99815 | 39052 ft | 533 kts | 130° |
| 2026-05-07 15:35 | 38.92862 | -84.91616 | 39065 ft | 532 kts | 130° |
| 2026-05-07 15:35 | 38.89108 | -84.83427 | 39061 ft | 532 kts | 130° |
| 2026-05-07 15:36 | 38.85350 | -84.75249 | 39061 ft | 532 kts | 131° |
| 2026-05-07 15:36 | 38.81608 | -84.67126 | 39066 ft | 533 kts | 131° |
| 2026-05-07 15:37 | 38.77828 | -84.58944 | 39063 ft | 534 kts | 131° |
| 2026-05-07 15:37 | 38.74034 | -84.50750 | 39061 ft | 535 kts | 131° |
| 2026-05-07 15:38 | 38.70228 | -84.42546 | 39064 ft | 536 kts | 131° |
| 2026-05-07 15:38 | 38.66507 | -84.34315 | 39055 ft | 546 kts | 125° |
| 2026-05-07 15:39 | 38.65045 | -84.29779 | 39058 ft | 557 kts | 116° |
| 2026-05-07 15:39 | 38.64043 | -84.24952 | 39053 ft | 568 kts | 105° |
| 2026-05-07 15:39 | 38.62969 | -84.14917 | 39062 ft | 571 kts | 102° |
| 2026-05-07 15:40 | 38.62015 | -84.04820 | 39058 ft | 572 kts | 102° |
| 2026-05-07 15:40 | 38.60988 | -83.94814 | 39062 ft | 572 kts | 103° |
| 2026-05-07 15:41 | 38.59883 | -83.84750 | 39066 ft | 572 kts | 104° |
| 2026-05-07 15:41 | 38.58754 | -83.74687 | 39066 ft | 572 kts | 104° |
| 2026-05-07 15:42 | 38.57623 | -83.64630 | 39063 ft | 572 kts | 104° |
| 2026-05-07 15:42 | 38.56497 | -83.54638 | 39063 ft | 572 kts | 104° |
| 2026-05-07 15:43 | 38.55355 | -83.44579 | 39056 ft | 572 kts | 104° |
| 2026-05-07 15:43 | 38.54206 | -83.34530 | 39044 ft | 572 kts | 104° |
| 2026-05-07 15:44 | 38.53047 | -83.24482 | 39045 ft | 572 kts | 105° |
| 2026-05-07 15:44 | 38.51888 | -83.14511 | 39042 ft | 572 kts | 105° |
| 2026-05-07 15:45 | 38.50710 | -83.04468 | 39052 ft | 572 kts | 105° |
| 2026-05-07 15:45 | 38.49522 | -82.94411 | 39041 ft | 574 kts | 105° |
| 2026-05-07 15:46 | 38.47720 | -82.79285 | 39042 ft | 575 kts | 105° |
| 2026-05-07 15:47 | 38.46514 | -82.69254 | 39044 ft | 576 kts | 105° |
| 2026-05-07 15:47 | 38.45288 | -82.59138 | 39026 ft | 578 kts | 105° |
| 2026-05-07 15:48 | 38.44051 | -82.49002 | 39024 ft | 579 kts | 105° |
| 2026-05-07 15:48 | 38.42803 | -82.38855 | 39021 ft | 580 kts | 106° |
| 2026-05-07 15:49 | 38.41553 | -82.28765 | 39021 ft | 580 kts | 106° |
| 2026-05-07 15:49 | 38.40285 | -82.18600 | 39019 ft | 581 kts | 106° |
| 2026-05-07 15:50 | 38.39007 | -82.08432 | 39017 ft | 581 kts | 106° |
| 2026-05-07 15:50 | 38.37721 | -81.98271 | 39007 ft | 581 kts | 106° |
| 2026-05-07 15:51 | 38.36436 | -81.88186 | 39009 ft | 580 kts | 106° |
| 2026-05-07 15:51 | 38.35139 | -81.78067 | 39008 ft | 578 kts | 106° |
| 2026-05-07 15:52 | 38.33684 | -81.68026 | 39018 ft | 574 kts | 109° |
| 2026-05-07 15:52 | 38.32058 | -81.58099 | 39009 ft | 571 kts | 110° |
| 2026-05-07 15:53 | 38.30466 | -81.48268 | 39017 ft | 570 kts | 109° |
| 2026-05-07 15:53 | 38.28896 | -81.38384 | 39011 ft | 569 kts | 109° |
| 2026-05-07 15:54 | 38.27319 | -81.28517 | 39018 ft | 569 kts | 109° |
| 2026-05-07 15:54 | 38.25721 | -81.18654 | 39008 ft | 570 kts | 110° |
| 2026-05-07 15:55 | 38.24110 | -81.08770 | 38991 ft | 572 kts | 110° |
| 2026-05-07 15:55 | 38.22498 | -80.98913 | 38974 ft | 573 kts | 110° |
| 2026-05-07 15:56 | 38.20870 | -80.89000 | 38976 ft | 572 kts | 110° |
| 2026-05-07 15:56 | 38.19238 | -80.79117 | 38977 ft | 571 kts | 110° |
| 2026-05-07 15:57 | 38.17608 | -80.69253 | 38975 ft | 569 kts | 110° |
| 2026-05-07 15:57 | 38.15991 | -80.59484 | 38946 ft | 569 kts | 110° |
| 2026-05-07 15:57 | 38.15169 | -80.54547 | 38478 ft | 573 kts | 110° |
| 2026-05-07 15:58 | 38.14342 | -80.49592 | 37875 ft | 573 kts | 110° |
| 2026-05-07 15:58 | 38.13516 | -80.44644 | 37311 ft | 572 kts | 110° |
| 2026-05-07 15:58 | 38.12691 | -80.39711 | 36761 ft | 571 kts | 110° |
| 2026-05-07 15:58 | 38.11863 | -80.34784 | 36202 ft | 570 kts | 111° |
| 2026-05-07 15:59 | 38.11023 | -80.29856 | 35590 ft | 571 kts | 111° |
| 2026-05-07 15:59 | 38.10176 | -80.24931 | 34971 ft | 572 kts | 111° |
| 2026-05-07 15:59 | 38.09333 | -80.20055 | 34328 ft | 574 kts | 111° |
| 2026-05-07 15:59 | 38.08473 | -80.15094 | 33614 ft | 577 kts | 111° |
| 2026-05-07 16:00 | 38.07610 | -80.10116 | 32881 ft | 578 kts | 111° |
| 2026-05-07 16:00 | 38.06745 | -80.05124 | 32212 ft | 579 kts | 111° |
| 2026-05-07 16:00 | 38.05885 | -80.00159 | 31726 ft | 574 kts | 111° |
| 2026-05-07 16:00 | 38.05031 | -79.95225 | 31241 ft | 570 kts | 111° |
| 2026-05-07 16:01 | 38.04179 | -79.90330 | 30759 ft | 567 kts | 112° |
| 2026-05-07 16:01 | 38.03329 | -79.85468 | 30268 ft | 563 kts | 112° |
| 2026-05-07 16:01 | 38.02478 | -79.80628 | 29728 ft | 560 kts | 112° |
| 2026-05-07 16:01 | 38.01645 | -79.75899 | 29184 ft | 555 kts | 112° |
| 2026-05-07 16:02 | 38.00805 | -79.71142 | 28663 ft | 549 kts | 112° |
| 2026-05-07 16:02 | 37.99975 | -79.66442 | 28168 ft | 544 kts | 112° |
| 2026-05-07 16:02 | 37.99149 | -79.61785 | 27666 ft | 539 kts | 112° |
| 2026-05-07 16:02 | 37.98334 | -79.57169 | 27284 ft | 534 kts | 111° |
| 2026-05-07 16:03 | 37.97533 | -79.52597 | 26801 ft | 529 kts | 111° |
| 2026-05-07 16:03 | 37.96739 | -79.48066 | 26345 ft | 524 kts | 111° |
| 2026-05-07 16:03 | 37.95953 | -79.43581 | 25866 ft | 518 kts | 111° |
| 2026-05-07 16:03 | 37.95193 | -79.39240 | 25361 ft | 505 kts | 111° |
| 2026-05-07 16:04 | 37.94441 | -79.34959 | 24907 ft | 492 kts | 111° |
| 2026-05-07 16:04 | 37.93701 | -79.30777 | 24443 ft | 481 kts | 112° |
| 2026-05-07 16:04 | 37.92963 | -79.26653 | 23979 ft | 480 kts | 112° |
| 2026-05-07 16:04 | 37.92222 | -79.22536 | 23470 ft | 479 kts | 112° |
| 2026-05-07 16:05 | 37.91486 | -79.18440 | 22932 ft | 476 kts | 111° |
| 2026-05-07 16:05 | 37.90759 | -79.14370 | 22460 ft | 472 kts | 111° |
| 2026-05-07 16:05 | 37.90035 | -79.10333 | 21984 ft | 469 kts | 111° |
| 2026-05-07 16:05 | 37.89282 | -79.06335 | 21490 ft | 465 kts | 112° |
| 2026-05-07 16:06 | 37.88511 | -79.02433 | 21037 ft | 461 kts | 112° |
| 2026-05-07 16:06 | 37.87720 | -78.98515 | 20584 ft | 458 kts | 112° |
| 2026-05-07 16:06 | 37.86936 | -78.94638 | 20150 ft | 452 kts | 112° |
| 2026-05-07 16:06 | 37.86172 | -78.90834 | 19722 ft | 440 kts | 112° |
| 2026-05-07 16:07 | 37.85431 | -78.87137 | 19271 ft | 428 kts | 112° |
| 2026-05-07 16:07 | 37.84713 | -78.83544 | 18899 ft | 415 kts | 112° |
| 2026-05-07 16:07 | 37.84012 | -78.80045 | 18512 ft | 405 kts | 112° |
| 2026-05-07 16:07 | 37.83326 | -78.76630 | 18118 ft | 396 kts | 112° |
| 2026-05-07 16:08 | 37.82660 | -78.73327 | 17682 ft | 389 kts | 112° |
| 2026-05-07 16:08 | 37.81996 | -78.70044 | 17290 ft | 382 kts | 112° |
| 2026-05-07 16:08 | 37.81340 | -78.66807 | 16951 ft | 380 kts | 112° |
| 2026-05-07 16:08 | 37.80680 | -78.63570 | 16569 ft | 379 kts | 111° |
| 2026-05-07 16:09 | 37.80024 | -78.60348 | 16185 ft | 377 kts | 111° |
| 2026-05-07 16:09 | 37.79373 | -78.57147 | 15815 ft | 375 kts | 111° |
| 2026-05-07 16:09 | 37.78727 | -78.53967 | 15433 ft | 373 kts | 110° |
| 2026-05-07 16:09 | 37.78083 | -78.50805 | 15059 ft | 371 kts | 110° |
| 2026-05-07 16:10 | 37.77442 | -78.47658 | 14686 ft | 369 kts | 110° |
| 2026-05-07 16:10 | 37.76812 | -78.44567 | 14324 ft | 368 kts | 110° |
| 2026-05-07 16:10 | 37.76170 | -78.41431 | 13937 ft | 371 kts | 110° |
| 2026-05-07 16:10 | 37.75522 | -78.38270 | 13506 ft | 373 kts | 109° |
| 2026-05-07 16:11 | 37.74874 | -78.35105 | 13075 ft | 369 kts | 109° |
| 2026-05-07 16:11 | 37.74241 | -78.32007 | 12680 ft | 360 kts | 109° |
| 2026-05-07 16:11 | 37.73623 | -78.28981 | 12302 ft | 352 kts | 109° |
| 2026-05-07 16:11 | 37.73016 | -78.26024 | 11937 ft | 344 kts | 109° |
| 2026-05-07 16:12 | 37.72416 | -78.23112 | 11590 ft | 342 kts | 109° |
| 2026-05-07 16:12 | 37.71825 | -78.20250 | 11248 ft | 341 kts | 109° |
| 2026-05-07 16:12 | 37.71227 | -78.17361 | 10895 ft | 339 kts | 109° |
| 2026-05-07 16:12 | 37.70631 | -78.14487 | 10570 ft | 337 kts | 109° |
| 2026-05-07 16:13 | 37.70051 | -78.11676 | 10419 ft | 325 kts | 109° |
| 2026-05-07 16:13 | 37.69484 | -78.08936 | 10277 ft | 322 kts | 109° |
| 2026-05-07 16:13 | 37.68906 | -78.06168 | 10170 ft | 329 kts | 109° |
| 2026-05-07 16:13 | 37.68321 | -78.03362 | 10012 ft | 331 kts | 109° |
| 2026-05-07 16:14 | 37.67735 | -78.00548 | 9674 ft | 331 kts | 109° |
| 2026-05-07 16:14 | 37.67161 | -77.97791 | 9359 ft | 327 kts | 109° |
| 2026-05-07 16:14 | 37.66586 | -77.95027 | 9048 ft | 324 kts | 108° |
| 2026-05-07 16:14 | 37.66015 | -77.92290 | 8753 ft | 321 kts | 108° |
| 2026-05-07 16:15 | 37.65449 | -77.89583 | 8454 ft | 318 kts | 108° |
| 2026-05-07 16:15 | 37.64875 | -77.86905 | 8151 ft | 314 kts | 112° |
| 2026-05-07 16:15 | 37.63849 | -77.84553 | 7823 ft | 300 kts | 136° |
| 2026-05-07 16:15 | 37.62371 | -77.82790 | 7517 ft | 287 kts | 144° |
| 2026-05-07 16:16 | 37.60872 | -77.81174 | 7181 ft | 280 kts | 144° |
| 2026-05-07 16:16 | 37.59403 | -77.79607 | 6866 ft | 273 kts | 144° |
| 2026-05-07 16:16 | 37.57993 | -77.78098 | 6566 ft | 267 kts | 143° |
| 2026-05-07 16:16 | 37.56595 | -77.76594 | 6256 ft | 261 kts | 143° |
| 2026-05-07 16:17 | 37.55232 | -77.75121 | 5935 ft | 255 kts | 143° |
| 2026-05-07 16:17 | 37.53900 | -77.73679 | 5649 ft | 250 kts | 143° |
| 2026-05-07 16:17 | 37.52592 | -77.72261 | 5362 ft | 247 kts | 143° |
| 2026-05-07 16:17 | 37.51299 | -77.70857 | 5090 ft | 245 kts | 142° |
| 2026-05-07 16:18 | 37.50009 | -77.69458 | 4804 ft | 244 kts | 142° |
| 2026-05-07 16:18 | 37.48724 | -77.68062 | 4516 ft | 244 kts | 142° |
| 2026-05-07 16:18 | 37.47438 | -77.66669 | 4230 ft | 243 kts | 142° |
| 2026-05-07 16:18 | 37.46177 | -77.65306 | 4008 ft | 240 kts | 142° |
| 2026-05-07 16:19 | 37.44877 | -77.64040 | 3889 ft | 234 kts | 155° |
| 2026-05-07 16:19 | 37.43322 | -77.63517 | 3859 ft | 234 kts | 177° |
| 2026-05-07 16:19 | 37.41685 | -77.63354 | 3785 ft | 238 kts | 179° |
| 2026-05-07 16:19 | 37.40030 | -77.63224 | 3676 ft | 239 kts | 179° |
| 2026-05-07 16:20 | 37.38376 | -77.63101 | 3588 ft | 238 kts | 179° |
| 2026-05-07 16:20 | 37.37284 | -77.63023 | 3537 ft | 237 kts | 180° |
| 2026-05-07 16:20 | 37.35107 | -77.62839 | 3431 ft | 238 kts | 171° |
| 2026-05-07 16:20 | 37.33688 | -77.61832 | 3345 ft | 237 kts | 129° |
| 2026-05-07 16:21 | 37.33118 | -77.59990 | 3278 ft | 224 kts | 91° |
| 2026-05-07 16:21 | 37.32980 | -77.58060 | 3252 ft | 221 kts | 96° |
| 2026-05-07 16:21 | 37.32757 | -77.56178 | 3169 ft | 213 kts | 97° |
| 2026-05-07 16:21 | 37.32517 | -77.54387 | 3080 ft | 203 kts | 98° |
| 2026-05-07 16:22 | 37.32354 | -77.53230 | 3039 ft | 202 kts | 99° |
| 2026-05-07 16:22 | 37.32100 | -77.51511 | 2960 ft | 199 kts | 99° |
| 2026-05-07 16:22 | 37.31842 | -77.49811 | 2904 ft | 199 kts | 100° |
| 2026-05-07 16:22 | 37.31488 | -77.47556 | 2820 ft | 199 kts | 100° |
| 2026-05-07 16:23 | 37.31217 | -77.45855 | 2754 ft | 198 kts | 100° |
| 2026-05-07 16:23 | 37.30946 | -77.44154 | 2695 ft | 199 kts | 100° |
| 2026-05-07 16:23 | 37.30673 | -77.42454 | 2638 ft | 198 kts | 100° |
| 2026-05-07 16:23 | 37.30642 | -77.40757 | 2546 ft | 193 kts | 73° |
| 2026-05-07 16:24 | 37.30988 | -77.39743 | 2526 ft | 191 kts | 54° |
| 2026-05-07 16:24 | 37.31928 | -77.38584 | 2445 ft | 190 kts | 28° |
| 2026-05-07 16:24 | 37.33150 | -77.37999 | 2389 ft | 188 kts | 13° |
| 2026-05-07 16:24 | 37.34418 | -77.37619 | 2322 ft | 188 kts | 11° |
| 2026-05-07 16:25 | 37.36108 | -77.37124 | 2241 ft | 189 kts | 12° |
| 2026-05-07 16:25 | 37.36973 | -77.36865 | 2183 ft | 189 kts | 12° |
| 2026-05-07 16:25 | 37.38257 | -77.36478 | 2066 ft | 190 kts | 12° |
| 2026-05-07 16:25 | 37.39525 | -77.36094 | 2014 ft | 186 kts | 12° |
| 2026-05-07 16:26 | 37.40761 | -77.35721 | 2012 ft | 186 kts | 12° |
| 2026-05-07 16:26 | 37.42040 | -77.35335 | 1785 ft | 187 kts | 13° |
| 2026-05-07 16:26 | 37.43272 | -77.34963 | 1551 ft | 177 kts | 13° |
| 2026-05-07 16:26 | 37.44409 | -77.34619 | 1344 ft | 159 kts | 13° |
| 2026-05-07 16:27 | 37.45419 | -77.34315 | 1106 ft | 143 kts | 13° |
| 2026-05-07 16:27 | 37.46363 | -77.34037 | 920 ft | 135 kts | 14° |
| 2026-05-07 16:27 | 37.47261 | -77.33763 | 756 ft | 131 kts | 16° |
| 2026-05-07 16:27 | 37.48143 | -77.33491 | 555 ft | 129 kts | 15° |
| 2026-05-07 16:28 | 37.48995 | -77.33236 | 374 ft | 125 kts | 16° |
| 2026-05-07 16:28 | 37.49821 | -77.32991 | 225 ft | 123 kts | 16° |
| 2026-05-07 16:28 | 37.50597 | -77.32753 | 176 ft | 93 kts | 13° |
| 2026-05-07 16:28 | 37.51021 | -77.32626 | 176 ft | 40 kts | 13° |
| 2026-05-07 16:29 | 37.51284 | -77.32582 | 176 ft | 36 kts | 357° |
| 2026-05-07 16:29 | 37.51418 | -77.32614 | 175 ft | 2 kts | 343° |
| 2026-05-07 16:31 | 37.51420 | -77.32615 | 175 ft | 2 kts | 343° |
| 2026-05-07 16:31 | 37.51460 | -77.32636 | 175 ft | 12 kts | 325° |
| 2026-05-07 16:31 | 37.51430 | -77.32729 | 175 ft | 18 kts | 197° |
| 2026-05-07 16:31 | 37.51269 | -77.32781 | 175 ft | 28 kts | 194° |
| 2026-05-07 16:32 | 37.51081 | -77.32837 | 175 ft | 27 kts | 193° |
| 2026-05-07 16:32 | 37.50906 | -77.32889 | 175 ft | 18 kts | 194° |
| 2026-05-07 16:32 | 37.50815 | -77.32915 | 175 ft | 10 kts | 193° |
| 2026-05-07 16:32 | 37.50750 | -77.32938 | 175 ft | 10 kts | 205° |
| 2026-05-07 16:33 | 37.50717 | -77.32989 | 175 ft | 7 kts | 247° |
| 2026-05-07 16:33 | 37.50706 | -77.33043 | 175 ft | 5 kts | 257° |
| 2026-05-07 16:33 | 37.50702 | -77.33067 | 175 ft | 0 kts | 257° |